Time;durP1;ratioP1;P1;durP2;ratioP2;P2;SDS_P1;SDS_P2;PMS_P1;PMS_P2;Temp;Humidity;BMP_temperature;BMP_pressure;BME280_temperature;BME280_humidity;BME280_pressure;Samples;Min_cycle;Max_cycle;Signal;HPM_P1;HPM_P2
2021/08/15 00:02:02;;;;;;;17.63;13.20;;;18.40;99.90;;;;;;4418749;28;656567;-67
2021/08/15 00:04:49;;;;;;;24.53;13.47;;;18.40;99.90;;;;;;4408579;28;656367;-67
2021/08/15 00:07:38;;;;;;;20.80;13.70;;;18.30;99.90;;;;;;4422224;28;656612;-67
2021/08/15 00:10:26;;;;;;;25.63;13.70;;;18.30;99.90;;;;;;4393116;28;656663;-67
2021/08/15 00:13:13;;;;;;;23.63;14.50;;;18.30;99.90;;;;;;4394593;28;656279;-67
2021/08/15 00:16:01;;;;;;;20.07;13.73;;;18.30;99.90;;;;;;4404248;28;657490;-67
2021/08/15 00:18:49;;;;;;;21.30;13.70;;;18.20;99.90;;;;;;4404899;28;657577;-68
2021/08/15 00:21:37;;;;;;;19.70;13.00;;;18.20;99.90;;;;;;4399920;28;657378;-67
2021/08/15 00:24:26;;;;;;;21.30;14.40;;;18.10;99.90;;;;;;4396325;28;657642;-67
2021/08/15 00:27:13;;;;;;;19.93;13.67;;;18.10;99.90;;;;;;4410806;28;656641;-67
2021/08/15 00:30:01;;;;;;;19.97;13.50;;;18.10;99.90;;;;;;4433958;28;657600;-67
2021/08/15 00:32:48;;;;;;;23.23;14.63;;;18.10;99.90;;;;;;4397267;28;657347;-67
2021/08/15 00:35:36;;;;;;;21.40;13.80;;;18.00;99.90;;;;;;4432985;28;657999;-67
2021/08/15 00:38:24;;;;;;;22.73;13.03;;;18.10;99.90;;;;;;4412715;28;656724;-67
2021/08/15 00:41:13;;;;;;;29.87;14.70;;;18.10;99.90;;;;;;4433285;28;656714;-67
2021/08/15 00:44:01;;;;;;;22.87;13.47;;;18.00;99.90;;;;;;4409444;28;657903;-67
2021/08/15 00:46:49;;;;;;;21.43;14.17;;;18.00;99.90;;;;;;4414498;28;657100;-67
2021/08/15 00:49:37;;;;;;;21.97;14.17;;;17.90;99.90;;;;;;4432875;28;657043;-67
2021/08/15 00:52:24;;;;;;;20.90;14.53;;;17.90;99.90;;;;;;4414017;28;656464;-67
2021/08/15 00:55:12;;;;;;;18.47;13.60;;;17.90;99.90;;;;;;4432568;28;656634;-67
2021/08/15 00:58:01;;;;;;;19.00;14.13;;;17.80;99.90;;;;;;4409282;28;657883;-67
2021/08/15 01:00:49;;;;;;;19.50;14.37;;;17.80;99.90;;;;;;4413200;28;656577;-67
2021/08/15 01:03:36;;;;;;;21.27;13.53;;;17.80;99.90;;;;;;4433448;28;657235;-67
2021/08/15 01:06:24;;;;;;;18.90;13.33;;;17.80;99.90;;;;;;4408308;28;656611;-67
2021/08/15 01:09:11;;;;;;;20.40;13.47;;;17.80;99.90;;;;;;4431340;28;656956;-67
2021/08/15 01:11:59;;;;;;;22.63;15.23;;;17.80;99.90;;;;;;4408152;28;657314;-68
2021/08/15 01:14:48;;;;;;;19.70;14.13;;;17.80;99.90;;;;;;4432773;28;656494;-67
2021/08/15 01:17:35;;;;;;;23.40;14.90;;;17.80;99.90;;;;;;4410225;28;656485;-67
2021/08/15 01:20:23;;;;;;;29.15;14.98;;;17.80;99.90;;;;;;4414548;28;656566;-67
2021/08/15 01:23:11;;;;;;;20.53;13.87;;;17.80;99.90;;;;;;4433596;28;657663;-67
2021/08/15 01:25:58;;;;;;;22.20;14.90;;;17.70;99.90;;;;;;4406132;28;656873;-67
2021/08/15 01:28:47;;;;;;;24.57;15.53;;;17.80;99.90;;;;;;4433102;28;658169;-67
2021/08/15 01:31:35;;;;;;;28.27;15.70;;;17.80;99.90;;;;;;4410150;28;657063;-67
2021/08/15 01:34:23;;;;;;;21.67;15.13;;;17.80;99.90;;;;;;4429903;28;656374;-67
2021/08/15 01:37:11;;;;;;;27.73;17.43;;;17.80;99.90;;;;;;4433046;28;657650;-67
2021/08/15 01:40:02;;;;;;;26.47;16.30;;;17.80;99.90;;;;;;4411107;28;656559;-67
2021/08/15 01:42:50;;;;;;;22.83;15.03;;;17.80;99.90;;;;;;4403695;28;658290;-66
2021/08/15 01:45:39;;;;;;;25.27;16.37;;;17.70;99.90;;;;;;4429513;28;656328;-66
2021/08/15 01:48:26;;;;;;;21.97;15.63;;;17.80;99.90;;;;;;4409875;28;656962;-67
2021/08/15 01:51:15;;;;;;;23.73;15.80;;;17.70;99.90;;;;;;4400306;28;657237;-67
2021/08/15 01:54:03;;;;;;;26.40;16.93;;;17.70;99.90;;;;;;4432328;28;656317;-67
2021/08/15 01:56:51;;;;;;;22.60;15.73;;;17.70;99.90;;;;;;4406571;28;657286;-67
2021/08/15 01:59:38;;;;;;;27.07;16.67;;;17.70;99.90;;;;;;4406797;28;656500;-67
2021/08/15 02:02:27;;;;;;;23.83;16.03;;;17.70;99.90;;;;;;4435584;28;657371;-66
2021/08/15 02:05:18;;;;;;;24.00;16.20;;;17.70;99.90;;;;;;4409297;28;657143;-67
2021/08/15 02:08:06;;;;;;;25.50;16.03;;;17.70;99.90;;;;;;4403439;28;657996;-68
2021/08/15 02:10:54;;;;;;;27.53;16.50;;;17.70;99.90;;;;;;4407139;28;656948;-66
2021/08/15 02:13:41;;;;;;;33.53;20.43;;;17.70;99.90;;;;;;4431634;28;657241;-67
2021/08/15 02:16:29;;;;;;;32.20;21.73;;;17.80;99.90;;;;;;4413229;28;656354;-66
2021/08/15 02:19:18;;;;;;;31.63;21.20;;;17.80;99.90;;;;;;4427188;28;656882;-67
2021/08/15 02:22:05;;;;;;;28.57;19.40;;;17.80;99.90;;;;;;4414018;28;658390;-67
2021/08/15 02:24:53;;;;;;;30.40;18.47;;;17.70;99.90;;;;;;4415231;28;656756;-67
2021/08/15 02:27:41;;;;;;;28.33;19.10;;;17.70;99.90;;;;;;4419276;28;658035;-67
2021/08/15 02:30:28;;;;;;;30.93;17.93;;;17.60;99.90;;;;;;4412212;28;656537;-67
2021/08/15 02:33:16;;;;;;;26.65;17.13;;;17.60;99.90;;;;;;4426970;28;658274;-67
2021/08/15 02:36:05;;;;;;;24.23;17.07;;;17.60;99.90;;;;;;4412566;28;656421;-66
2021/08/15 02:38:53;;;;;;;27.90;17.02;;;17.60;99.90;;;;;;4415769;28;656687;-67
2021/08/15 02:41:41;;;;;;;27.03;17.60;;;17.60;99.90;;;;;;4434701;28;657253;-66
2021/08/15 02:44:28;;;;;;;29.23;17.17;;;17.60;99.90;;;;;;4408922;28;656527;-67
2021/08/15 02:47:16;;;;;;;29.70;17.80;;;17.50;99.90;;;;;;4433485;28;657453;-67
2021/08/15 02:50:04;;;;;;;26.90;17.73;;;17.50;99.90;;;;;;4411359;28;656787;-66
2021/08/15 02:52:53;;;;;;;25.10;16.33;;;17.50;99.90;;;;;;4431177;28;657046;-67
2021/08/15 02:55:40;;;;;;;24.20;16.47;;;17.40;99.90;;;;;;4407686;28;657622;-66
2021/08/15 02:58:28;;;;;;;24.17;16.75;;;17.40;99.90;;;;;;4412148;28;656432;-67
2021/08/15 03:01:16;;;;;;;27.30;16.70;;;17.30;99.90;;;;;;4431170;28;657319;-66
2021/08/15 03:04:03;;;;;;;27.53;16.37;;;17.30;99.90;;;;;;4404705;28;656479;-67
2021/08/15 03:06:51;;;;;;;26.77;16.20;;;17.30;99.90;;;;;;4434628;28;657627;-66
2021/08/15 03:09:40;;;;;;;25.80;16.20;;;17.30;99.90;;;;;;4404124;28;656682;-67
2021/08/15 03:12:27;;;;;;;22.57;16.20;;;17.30;99.90;;;;;;4431127;28;656275;-67
2021/08/15 03:15:15;;;;;;;24.77;16.47;;;17.30;99.90;;;;;;4400574;28;657045;-67
2021/08/15 03:18:03;;;;;;;27.77;17.13;;;17.30;99.90;;;;;;4429095;28;657065;-67
2021/08/15 03:20:51;;;;;;;27.10;17.10;;;17.30;99.90;;;;;;4423440;28;658041;-66
2021/08/15 03:23:38;;;;;;;27.50;17.20;;;17.20;99.90;;;;;;4412525;28;656847;-67
2021/08/15 03:26:27;;;;;;;25.40;16.97;;;17.20;99.90;;;;;;4431521;28;658223;-66
2021/08/15 03:29:41;;;;;;;28.20;17.63;;;17.20;99.90;;;;;;4407579;28;656760;-66
2021/08/15 03:32:29;;;;;;;27.43;17.43;;;17.20;99.90;;;;;;4376427;28;656619;-67
2021/08/15 03:35:17;;;;;;;25.03;16.80;;;17.20;99.90;;;;;;4414063;28;656797;-66
2021/08/15 03:38:04;;;;;;;24.03;16.03;;;17.20;99.90;;;;;;4407566;28;656822;-67
2021/08/15 03:40:52;;;;;;;24.52;16.27;;;17.20;99.90;;;;;;4430648;28;657177;-66
2021/08/15 03:43:41;;;;;;;25.73;16.83;;;17.20;99.90;;;;;;4408127;28;658161;-66
2021/08/15 03:46:28;;;;;;;26.53;16.57;;;17.20;99.90;;;;;;4411902;28;656491;-66
2021/08/15 03:49:18;;;;;;;24.07;15.90;;;17.20;99.90;;;;;;4426071;28;658012;-66
2021/08/15 03:52:06;;;;;;;26.17;15.60;;;17.20;99.90;;;;;;4407731;28;657049;-67
2021/08/15 03:54:57;;;;;;;23.60;15.47;;;17.20;99.90;;;;;;4404498;28;657191;-67
2021/08/15 03:57:44;;;;;;;25.07;16.10;;;17.20;99.90;;;;;;4406045;28;656561;-67
2021/08/15 04:00:39;;;;;;;29.47;16.20;;;17.30;99.90;;;;;;4430138;28;657020;-66
2021/08/15 04:03:27;;;;;;;24.97;15.70;;;17.30;99.90;;;;;;4407602;28;656488;-67
2021/08/15 04:06:21;;;;;;;27.57;15.90;;;17.30;99.90;;;;;;4405896;28;656632;-67
2021/08/15 04:09:08;;;;;;;22.67;14.43;;;17.40;99.90;;;;;;4377048;28;656960;-67
2021/08/15 04:11:56;;;;;;;27.30;16.00;;;17.50;99.90;;;;;;4433758;28;657316;-66
2021/08/15 04:14:43;;;;;;;25.10;16.10;;;17.50;99.90;;;;;;4411407;28;656317;-67
2021/08/15 04:17:32;;;;;;;22.47;15.53;;;17.50;99.90;;;;;;4430221;28;657658;-67
2021/08/15 04:20:20;;;;;;;23.17;14.80;;;17.50;99.90;;;;;;4402080;28;658171;-67
2021/08/15 04:23:07;;;;;;;29.47;16.93;;;17.50;99.90;;;;;;4430681;28;656293;-66
2021/08/15 04:25:55;;;;;;;29.10;16.80;;;17.60;99.90;;;;;;4400499;28;657100;-67
2021/08/15 04:28:43;;;;;;;24.57;15.37;;;17.70;99.90;;;;;;4408909;28;656966;-67
2021/08/15 04:31:31;;;;;;;26.47;16.60;;;17.70;99.90;;;;;;4432882;28;656277;-67
2021/08/15 04:34:20;;;;;;;23.73;15.90;;;17.70;99.90;;;;;;4409777;28;657126;-67
2021/08/15 04:37:09;;;;;;;25.63;16.30;;;17.80;99.90;;;;;;4421229;28;656441;-67
2021/08/15 04:39:56;;;;;;;25.33;14.60;;;17.90;99.90;;;;;;4409528;28;657559;-67
2021/08/15 04:42:44;;;;;;;23.97;14.93;;;18.00;99.90;;;;;;4413930;28;656469;-67
2021/08/15 04:45:31;;;;;;;23.83;14.70;;;18.10;99.90;;;;;;4433774;28;657177;-67
2021/08/15 04:48:19;;;;;;;28.88;15.52;;;18.20;99.90;;;;;;4411516;28;656682;-67
2021/08/15 04:51:08;;;;;;;26.10;15.57;;;18.30;99.90;;;;;;4425080;28;656597;-67
2021/08/15 04:53:55;;;;;;;23.53;15.97;;;18.50;99.90;;;;;;4401605;28;657084;-67
2021/08/15 04:56:43;;;;;;;25.13;17.08;;;18.60;99.90;;;;;;4414411;28;656551;-67
2021/08/15 04:59:31;;;;;;;28.43;19.20;;;18.60;99.90;;;;;;4432578;28;656976;-67
2021/08/15 05:02:18;;;;;;;31.10;19.53;;;18.80;99.90;;;;;;4407150;28;657419;-67
2021/08/15 05:05:06;;;;;;;26.63;17.40;;;18.90;99.90;;;;;;4428729;28;658161;-67
2021/08/15 05:07:55;;;;;;;26.67;17.90;;;19.10;99.90;;;;;;4410826;28;656777;-67
2021/08/15 05:10:43;;;;;;;27.83;18.65;;;19.10;99.90;;;;;;4418780;28;656999;-67
2021/08/15 05:13:31;;;;;;;27.03;18.37;;;19.20;99.90;;;;;;4433791;28;657109;-67
2021/08/15 05:16:18;;;;;;;29.03;19.50;;;19.30;99.90;;;;;;4413652;28;656925;-67
2021/08/15 05:19:06;;;;;;;25.80;17.13;;;19.50;99.90;;;;;;4435925;28;657708;-67
2021/08/15 05:21:53;;;;;;;23.20;16.27;;;19.70;99.90;;;;;;4406600;28;656486;-67
2021/08/15 05:24:42;;;;;;;24.60;16.13;;;19.80;99.90;;;;;;4432347;28;657879;-67
2021/08/15 05:27:30;;;;;;;24.07;15.60;;;20.00;99.90;;;;;;4409135;28;658702;-67
2021/08/15 05:30:17;;;;;;;25.70;16.47;;;20.10;99.90;;;;;;4433259;28;656167;-67
2021/08/15 05:33:05;;;;;;;22.23;16.23;;;20.20;99.90;;;;;;4404378;28;657807;-67
2021/08/15 05:35:53;;;;;;;28.53;16.50;;;20.40;99.90;;;;;;4419274;28;656378;-67
2021/08/15 05:38:43;;;;;;;24.20;16.10;;;20.50;99.90;;;;;;4429719;28;657563;-67
2021/08/15 05:41:33;;;;;;;22.80;16.20;;;20.70;99.90;;;;;;4385776;28;657727;-67
2021/08/15 05:44:22;;;;;;;23.17;15.30;;;20.80;99.90;;;;;;4409093;28;657425;-67
2021/08/15 05:47:17;;;;;;;21.10;14.90;;;20.90;99.90;;;;;;4413940;28;657058;-67
2021/08/15 05:50:09;;;;;;;27.33;15.87;;;21.10;99.90;;;;;;4412757;28;656619;-67
2021/08/15 05:52:58;;;;;;;27.33;15.70;;;21.20;99.90;;;;;;4407514;28;657005;-67
2021/08/15 05:55:50;;;;;;;26.80;15.57;;;21.30;99.90;;;;;;4409904;28;657136;-67
2021/08/15 05:58:50;;;;;;;29.37;15.37;;;21.50;99.90;;;;;;4396304;28;656280;-67
2021/08/15 06:01:40;;;;;;;28.37;15.80;;;21.60;99.90;;;;;;4392775;28;656618;-67
2021/08/15 06:04:32;;;;;;;31.20;14.87;;;21.80;99.90;;;;;;4428127;28;656653;-67
2021/08/15 06:07:20;;;;;;;27.37;13.63;;;21.90;99.90;;;;;;4406414;28;657252;-67
2021/08/15 06:10:10;;;;;;;22.37;13.93;;;22.10;99.90;;;;;;4409766;28;656395;-67
2021/08/15 06:12:59;;;;;;;18.43;12.73;;;22.20;99.90;;;;;;4429188;28;656404;-67
2021/08/15 06:15:49;;;;;;;23.13;12.57;;;22.40;99.90;;;;;;4401279;28;656577;-67
2021/08/15 06:18:38;;;;;;;19.97;11.43;;;22.60;99.90;;;;;;4401249;28;656797;-67
2021/08/15 06:21:27;;;;;;;19.40;11.93;;;22.70;99.90;;;;;;4412292;28;657647;-67
2021/08/15 06:24:21;;;;;;;18.47;9.80;;;22.90;99.90;;;;;;4412191;28;656614;-67
2021/08/15 06:27:11;;;;;;;21.27;10.53;;;23.10;99.90;;;;;;4386207;28;656741;-67
2021/08/15 06:30:05;;;;;;;15.07;9.63;;;23.20;99.90;;;;;;4408226;28;656573;-67
2021/08/15 06:33:01;;;;;;;14.30;9.90;;;23.40;99.90;;;;;;4391215;28;655398;-67
2021/08/15 06:35:52;;;;;;;15.43;8.73;;;23.60;99.90;;;;;;4379665;28;655779;-67
2021/08/15 06:38:42;;;;;;;18.27;9.77;;;23.80;99.90;;;;;;4408545;28;655893;-66
2021/08/15 06:41:30;;;;;;;20.67;9.70;;;24.00;99.90;;;;;;4402710;28;656906;-67
2021/08/15 06:44:17;;;;;;;14.00;9.80;;;24.20;99.90;;;;;;4407145;28;655526;-67
2021/08/15 06:47:05;;;;;;;17.43;9.97;;;24.30;99.90;;;;;;4425877;28;656320;-67
2021/08/15 06:49:54;;;;;;;16.05;9.73;;;24.60;99.90;;;;;;4404448;28;655256;-67
2021/08/15 06:52:43;;;;;;;16.93;10.03;;;24.60;99.90;;;;;;4432922;28;655569;-67
2021/08/15 06:55:30;;;;;;;13.93;9.93;;;24.80;99.90;;;;;;4429562;28;657290;-67
2021/08/15 06:58:18;;;;;;;16.08;10.20;;;25.00;99.90;;;;;;4412473;28;656016;-67
2021/08/15 07:01:06;;;;;;;13.98;10.57;;;25.20;99.90;;;;;;4426004;28;657152;-67
2021/08/15 07:03:53;;;;;;;14.85;9.80;;;25.30;99.90;;;;;;4418259;28;656722;-67
2021/08/15 07:06:42;;;;;;;14.27;9.20;;;25.40;99.90;;;;;;4432373;28;655473;-67
2021/08/15 07:09:30;;;;;;;16.08;9.43;;;25.60;99.90;;;;;;4409460;28;655723;-68
2021/08/15 07:12:18;;;;;;;13.40;8.65;;;25.60;99.90;;;;;;4412869;28;655888;-67
2021/08/15 07:15:07;;;;;;;12.30;8.52;;;25.80;99.90;;;;;;4427082;28;657473;-67
2021/08/15 07:17:55;;;;;;;13.82;8.82;;;25.90;99.90;;;;;;4415953;28;658104;-67
2021/08/15 07:20:43;;;;;;;15.32;9.10;;;26.10;99.90;;;;;;4415905;28;656464;-68
2021/08/15 07:23:31;;;;;;;13.35;8.90;;;26.10;99.90;;;;;;4439299;28;656915;-68
2021/08/15 07:26:19;;;;;;;14.43;8.55;;;26.30;99.90;;;;;;4403539;28;657339;-68
2021/08/15 07:29:07;;;;;;;13.45;9.90;;;26.40;99.90;;;;;;4439049;28;656953;-67
2021/08/15 07:31:54;;;;;;;15.32;10.13;;;26.50;99.90;;;;;;4386647;28;657612;-67
2021/08/15 07:34:42;;;;;;;14.80;9.48;;;26.60;99.90;;;;;;4422267;28;657472;-68
2021/08/15 07:37:30;;;;;;;16.40;10.70;;;26.70;99.90;;;;;;4434869;28;657074;-67
2021/08/15 07:40:19;;;;;;;16.38;9.82;;;26.90;99.90;;;;;;4411264;28;657628;-67
2021/08/15 07:43:07;;;;;;;19.83;9.85;;;27.00;99.90;;;;;;4431112;28;656562;-67
2021/08/15 07:45:54;;;;;;;16.80;9.55;;;27.10;99.90;;;;;;4408182;28;657401;-67
2021/08/15 07:48:43;;;;;;;16.23;10.02;;;27.20;99.90;;;;;;4426768;28;656319;-68
2021/08/15 07:51:30;;;;;;;17.17;10.30;;;27.40;99.90;;;;;;4425138;28;658900;-67
2021/08/15 07:54:18;;;;;;;13.88;10.05;;;27.60;99.90;;;;;;4410820;28;657606;-68
2021/08/15 07:57:07;;;;;;;13.75;9.60;;;27.70;99.90;;;;;;4428224;28;658387;-68
2021/08/15 07:59:55;;;;;;;13.90;10.15;;;27.80;99.90;;;;;;4408340;28;657713;-68
2021/08/15 08:02:43;;;;;;;16.75;9.52;;;28.10;99.90;;;;;;4401950;28;657763;-68
2021/08/15 08:05:30;;;;;;;14.73;10.07;;;28.30;99.90;;;;;;4433008;28;657370;-67
2021/08/15 08:08:18;;;;;;;19.73;10.18;;;28.30;99.90;;;;;;4414125;28;657331;-67
2021/08/15 08:11:05;;;;;;;16.40;10.18;;;28.60;99.90;;;;;;4430846;28;657965;-68
2021/08/15 08:13:54;;;;;;;15.35;9.63;;;28.90;99.90;;;;;;4409317;28;657773;-68
2021/08/15 08:16:42;;;;;;;15.50;10.38;;;29.20;99.90;;;;;;4422504;28;656551;-68
2021/08/15 08:19:30;;;;;;;14.45;10.50;;;29.50;99.90;;;;;;4423831;28;658226;-68
2021/08/15 08:22:18;;;;;;;15.10;9.32;;;29.90;99.90;;;;;;4411666;28;657538;-68
2021/08/15 08:25:06;;;;;;;15.23;8.82;;;30.20;99.90;;;;;;4433373;28;656742;-68
2021/08/15 08:27:53;;;;;;;12.35;8.60;;;30.30;99.90;;;;;;4384238;28;656449;-68
2021/08/15 08:30:43;;;;;;;13.52;8.65;;;30.50;99.90;;;;;;4417707;28;656160;-67
2021/08/15 08:33:30;;;;;;;10.65;6.70;;;30.70;99.90;;;;;;4395844;28;656753;-68
2021/08/15 08:36:18;;;;;;;11.75;6.70;;;30.60;99.90;;;;;;4390702;28;656366;-67
2021/08/15 08:39:05;;;;;;;11.68;7.63;;;30.30;99.90;;;;;;4414986;28;657005;-68
2021/08/15 08:41:53;;;;;;;14.45;7.10;;;30.20;99.90;;;;;;4393982;28;657039;-68
2021/08/15 08:44:40;;;;;;;16.63;7.60;;;30.10;99.90;;;;;;4414162;28;657631;-68
2021/08/15 08:47:30;;;;;;;10.70;7.75;;;30.20;99.90;;;;;;4410664;28;656414;-67
2021/08/15 08:50:18;;;;;;;14.02;7.05;;;30.30;99.90;;;;;;4397161;28;657166;-68
2021/08/15 08:53:05;;;;;;;14.48;7.45;;;30.30;99.90;;;;;;4415951;28;657443;-67
2021/08/15 08:55:53;;;;;;;13.60;8.15;;;30.10;99.90;;;;;;4391354;28;656430;-68
2021/08/15 08:58:41;;;;;;;11.25;8.38;;;30.00;99.90;;;;;;4415831;28;656856;-68
2021/08/15 09:01:28;;;;;;;12.48;7.72;;;30.00;99.90;;;;;;4404005;28;657065;-68
2021/08/15 09:04:17;;;;;;;13.80;8.00;;;30.30;99.90;;;;;;4402609;28;656766;-68
2021/08/15 09:07:10;;;;;;;11.68;7.28;;;30.50;99.90;;;;;;4378454;28;657899;-68
2021/08/15 09:09:59;;;;;;;14.30;7.10;;;30.50;99.90;;;;;;4373187;28;656875;-68
2021/08/15 09:12:48;;;;;;;12.07;7.13;;;30.50;99.90;;;;;;4413229;28;655957;-68
2021/08/15 09:15:35;;;;;;;13.88;7.40;;;30.80;99.90;;;;;;4391941;28;657645;-68
2021/08/15 09:18:29;;;;;;;12.43;6.95;;;30.60;99.90;;;;;;4394076;28;656537;-68
2021/08/15 09:21:28;;;;;;;10.90;7.18;;;30.90;99.90;;;;;;4380192;28;656527;-68
2021/08/15 09:24:15;;;;;;;11.60;6.78;;;31.00;99.90;;;;;;4398169;28;656628;-68
2021/08/15 09:27:07;;;;;;;13.80;6.68;;;30.60;99.90;;;;;;4395679;28;656269;-68
2021/08/15 09:30:23;;;;;;;14.43;7.40;;;29.80;99.90;;;;;;4400579;28;656612;-68
2021/08/15 09:33:17;;;;;;;11.02;7.10;;;29.20;99.90;;;;;;4385804;28;656414;-68
2021/08/15 09:36:05;;;;;;;12.30;7.15;;;29.20;99.90;;;;;;4373255;28;657368;-68
2021/08/15 09:38:55;;;;;;;14.40;7.53;;;29.70;99.90;;;;;;4390346;28;657035;-68
2021/08/15 09:41:50;;;;;;;13.00;7.80;;;29.80;99.90;;;;;;4387178;28;656203;-68
2021/08/15 09:44:38;;;;;;;18.00;7.80;;;29.40;99.90;;;;;;4374592;28;656732;-66
2021/08/15 09:47:25;;;;;;;16.00;8.25;;;29.20;99.90;;;;;;4422668;28;658798;-67
2021/08/15 09:50:18;;;;;;;17.48;8.60;;;29.30;99.90;;;;;;4411578;28;656884;-67
2021/08/15 09:53:05;;;;;;;11.23;7.38;;;29.60;99.90;;;;;;4375921;28;657315;-67
2021/08/15 09:55:54;;;;;;;18.00;7.90;;;29.70;99.90;;;;;;4405887;28;656574;-67
2021/08/15 09:58:43;;;;;;;14.95;8.15;;;29.50;99.90;;;;;;4404753;28;656804;-67
2021/08/15 10:01:30;;;;;;;11.40;7.65;;;29.80;99.90;;;;;;4405317;28;657659;-67
2021/08/15 10:04:18;;;;;;;10.50;7.20;;;30.20;99.90;;;;;;4393859;28;656396;-67
2021/08/15 10:07:06;;;;;;;11.68;7.75;;;30.60;99.90;;;;;;4412574;28;657017;-66
2021/08/15 10:09:53;;;;;;;14.10;7.75;;;30.60;99.90;;;;;;4376256;28;656243;-67
2021/08/15 10:12:43;;;;;;;10.75;7.35;;;30.40;99.90;;;;;;4406408;28;656392;-67
2021/08/15 10:15:30;;;;;;;12.60;7.25;;;30.60;99.90;;;;;;4378380;28;657828;-66
2021/08/15 10:18:18;;;;;;;13.55;7.32;;;30.60;99.90;;;;;;4392504;28;656724;-66
2021/08/15 10:21:13;;;;;;;11.55;6.82;;;30.90;99.90;;;;;;4405624;28;657100;-66
2021/08/15 10:24:07;;;;;;;11.13;7.18;;;30.80;99.90;;;;;;4378503;28;656840;-66
2021/08/15 10:26:55;;;;;;;13.95;7.88;;;31.40;99.90;;;;;;4368177;28;657399;-66
2021/08/15 10:29:44;;;;;;;10.20;6.18;;;31.70;99.90;;;;;;4412455;28;656362;-67
2021/08/15 10:32:32;;;;;;;10.05;7.10;;;31.80;99.50;;;;;;4429750;28;656395;-67
2021/08/15 10:35:20;;;;;;;12.23;7.28;;;31.40;99.90;;;;;;4420468;28;657598;-66
2021/08/15 10:38:08;;;;;;;10.48;7.03;;;31.30;99.90;;;;;;4413060;28;656150;-66
2021/08/15 10:40:59;;;;;;;11.70;6.68;;;31.50;99.90;;;;;;4423986;28;656633;-67
2021/08/15 10:43:59;;;;;;;7.57;6.03;;;31.70;99.10;;;;;;4431610;28;656478;-67
2021/08/15 10:47:21;;;;;;;12.90;5.82;;;31.50;98.20;;;;;;4403418;28;655433;-67
2021/08/15 10:50:09;;;;;;;9.75;6.00;;;31.20;98.00;;;;;;4336542;28;656879;-67
2021/08/15 10:52:57;;;;;;;11.43;6.55;;;31.10;96.80;;;;;;4350695;28;655464;-67
2021/08/15 10:55:47;;;;;;;9.10;6.72;;;31.00;97.30;;;;;;4339509;28;657059;-66
2021/08/15 10:58:38;;;;;;;9.85;6.70;;;31.20;98.80;;;;;;4339064;28;656526;-66
2021/08/15 11:01:43;;;;;;;9.15;6.57;;;30.90;99.90;;;;;;4338854;28;655396;-67
2021/08/15 11:04:33;;;;;;;8.30;6.28;;;31.00;98.70;;;;;;4338816;28;655859;-66
2021/08/15 11:07:34;;;;;;;11.60;6.20;;;31.00;96.70;;;;;;4327167;28;656119;-66
2021/08/15 11:10:22;;;;;;;10.82;6.78;;;31.20;98.50;;;;;;4322941;28;657695;-67
2021/08/15 11:13:16;;;;;;;7.85;5.07;;;31.30;97.70;;;;;;4321686;28;657283;-67
2021/08/15 11:16:41;;;;;;;8.82;5.32;;;31.30;94.40;;;;;;4320152;28;655799;-66
2021/08/15 11:19:30;;;;;;;8.65;5.90;;;31.30;95.40;;;;;;4342396;28;656109;-67
2021/08/15 11:22:25;;;;;;;10.98;5.88;;;31.70;94.60;;;;;;4330333;28;655328;-66
2021/08/15 11:25:13;;;;;;;9.20;5.53;;;31.80;94.30;;;;;;4400733;28;656673;-67
2021/08/15 11:28:01;;;;;;;11.75;6.15;;;31.70;91.40;;;;;;4427783;28;655776;-67
2021/08/15 11:30:53;;;;;;;10.55;6.35;;;31.70;93.10;;;;;;4411378;28;656769;-66
2021/08/15 11:33:41;;;;;;;10.70;6.38;;;31.70;92.50;;;;;;4408147;28;656728;-66
2021/08/15 11:36:29;;;;;;;11.48;6.47;;;31.70;92.70;;;;;;4412345;28;656659;-67
2021/08/15 11:39:18;;;;;;;10.55;6.25;;;31.80;93.00;;;;;;4429884;28;656512;-67
2021/08/15 11:42:08;;;;;;;12.50;6.00;;;31.90;94.10;;;;;;4394626;28;657870;-66
2021/08/15 11:44:58;;;;;;;11.53;6.07;;;32.00;93.20;;;;;;4407368;28;657728;-68
2021/08/15 11:47:46;;;;;;;10.30;6.83;;;32.40;91.60;;;;;;4400176;28;656684;-67
2021/08/15 11:50:33;;;;;;;7.53;5.95;;;32.90;92.70;;;;;;4397482;28;656373;-67
2021/08/15 11:53:23;;;;;;;12.13;6.57;;;33.20;90.00;;;;;;4417264;28;656242;-67
2021/08/15 11:56:14;;;;;;;9.65;6.00;;;33.40;90.20;;;;;;4395557;28;658043;-67
2021/08/15 11:59:03;;;;;;;14.55;6.50;;;33.40;90.90;;;;;;4396836;28;656250;-67
2021/08/15 12:01:52;;;;;;;12.05;6.20;;;33.70;88.70;;;;;;4391303;28;657729;-67
2021/08/15 12:04:39;;;;;;;10.93;6.20;;;34.10;87.70;;;;;;4410855;28;657423;-67
2021/08/15 12:07:28;;;;;;;9.45;6.53;;;34.10;87.80;;;;;;4414482;28;656512;-67
2021/08/15 12:10:26;;;;;;;8.93;6.28;;;33.40;83.20;;;;;;4432276;28;656830;-67
2021/08/15 12:13:23;;;;;;;14.40;6.38;;;32.80;87.80;;;;;;4407868;28;655621;-67
2021/08/15 12:16:12;;;;;;;10.43;7.07;;;32.60;90.00;;;;;;4406821;28;657373;-67
2021/08/15 12:19:00;;;;;;;10.13;6.30;;;32.50;88.30;;;;;;4407601;28;656932;-67
2021/08/15 12:21:48;;;;;;;10.73;6.88;;;32.50;89.60;;;;;;4412080;28;656470;-67
2021/08/15 12:24:35;;;;;;;10.52;6.00;;;32.60;88.70;;;;;;4424202;28;657538;-67
2021/08/15 12:27:24;;;;;;;9.63;6.03;;;32.80;86.00;;;;;;4411537;28;656618;-67
2021/08/15 12:30:26;;;;;;;10.25;5.93;;;32.70;84.10;;;;;;4432656;28;655773;-67
2021/08/15 12:33:23;;;;;;;13.73;6.03;;;32.30;82.90;;;;;;4412463;28;656446;-67
2021/08/15 12:36:19;;;;;;;6.43;5.40;;;32.40;90.60;;;;;;4406003;28;656834;-67
2021/08/15 12:39:06;;;;;;;9.80;5.70;;;32.40;84.10;;;;;;4406622;28;655431;-67
2021/08/15 12:41:56;;;;;;;14.57;6.10;;;32.70;86.20;;;;;;4414772;28;657195;-66
2021/08/15 12:44:54;;;;;;;8.90;5.78;;;32.80;80.50;;;;;;4420625;28;656678;-67
2021/08/15 12:47:44;;;;;;;9.15;5.78;;;32.60;81.20;;;;;;4403074;28;655303;-67
2021/08/15 12:50:32;;;;;;;7.57;5.72;;;32.60;82.50;;;;;;4412596;28;655720;-67
2021/08/15 12:53:22;;;;;;;8.20;5.32;;;32.70;78.30;;;;;;4433967;28;655977;-67
2021/08/15 12:56:18;;;;;;;10.40;5.00;;;31.90;79.30;;;;;;4399545;28;656735;-66
2021/08/15 12:59:06;;;;;;;8.38;5.00;;;31.50;78.60;;;;;;4421795;28;657009;-67
2021/08/15 13:01:53;;;;;;;6.45;4.85;;;31.40;79.30;;;;;;4424037;28;655551;-67
2021/08/15 13:04:42;;;;;;;7.03;4.90;;;31.70;81.20;;;;;;4455796;28;656141;-67
2021/08/15 13:07:30;;;;;;;7.18;4.80;;;31.80;82.30;;;;;;4403892;28;655683;-66
2021/08/15 13:10:18;;;;;;;9.05;5.35;;;31.80;80.00;;;;;;4415847;28;655711;-66
2021/08/15 13:13:05;;;;;;;10.35;5.10;;;32.00;78.70;;;;;;4436563;28;655976;-67
2021/08/15 13:15:54;;;;;;;9.65;5.35;;;31.90;77.00;;;;;;4396425;28;656856;-67
2021/08/15 13:18:41;;;;;;;9.70;5.10;;;32.00;77.80;;;;;;4427557;28;655381;-67
2021/08/15 13:21:30;;;;;;;8.38;5.13;;;32.30;78.60;;;;;;4430937;28;655764;-67
2021/08/15 13:24:18;;;;;;;6.88;4.78;;;32.60;74.50;;;;;;4413474;28;655568;-67
2021/08/15 13:27:06;;;;;;;7.93;5.00;;;32.60;73.90;;;;;;4400944;28;656071;-67
2021/08/15 13:29:54;;;;;;;5.57;4.70;;;32.30;77.00;;;;;;4380055;28;657304;-67
2021/08/15 13:32:41;;;;;;;6.47;4.57;;;32.20;75.00;;;;;;4409209;28;656046;-67
2021/08/15 13:35:29;;;;;;;5.75;4.22;;;32.50;77.00;;;;;;4393218;28;656830;-67
2021/08/15 13:38:18;;;;;;;6.10;4.20;;;32.30;71.30;;;;;;4417152;28;656056;-67
2021/08/15 13:41:06;;;;;;;6.05;4.40;;;32.50;70.80;;;;;;4393382;28;655388;-67
2021/08/15 13:43:53;;;;;;;6.90;4.45;;;32.70;69.60;;;;;;4382103;28;655499;-67
2021/08/15 13:46:41;;;;;;;7.47;4.47;;;32.90;68.00;;;;;;4416550;28;656178;-67
2021/08/15 13:49:28;;;;;;;5.80;4.50;;;33.10;68.10;;;;;;4397810;28;655588;-67
2021/08/15 13:52:16;;;;;;;6.63;4.35;;;33.20;64.50;;;;;;4412107;28;655968;-67
2021/08/15 13:55:06;;;;;;;6.88;4.78;;;33.20;63.30;;;;;;4388529;28;655267;-67
2021/08/15 13:57:54;;;;;;;7.95;4.50;;;33.40;64.90;;;;;;4380535;28;655726;-67
2021/08/15 14:00:42;;;;;;;5.43;4.40;;;33.40;62.50;;;;;;4416305;28;656124;-67
2021/08/15 14:03:30;;;;;;;6.93;4.57;;;33.50;64.80;;;;;;4394242;28;656821;-67
2021/08/15 14:06:17;;;;;;;7.18;4.50;;;33.80;71.30;;;;;;4392920;28;655615;-67
2021/08/15 14:09:05;;;;;;;6.88;4.55;;;34.00;69.10;;;;;;4403185;28;656024;-67
2021/08/15 14:11:54;;;;;;;7.95;4.32;;;33.90;61.90;;;;;;4384381;28;655753;-67
2021/08/15 14:14:42;;;;;;;5.50;4.35;;;33.80;65.50;;;;;;4409866;28;655539;-66